EVA113 ROAH-RCTP
Flight info
| Callsign | EVA113 |
|---|---|
| Flight time | 1h 10m |
| Altitude | 30000 |
| Route | GANJU2 GANJU Y576 LILRA Y573 SEDKU R595 GRACE GRACE1A |
| Aircraft | B77W/H-SDE1E2E3FGHIJ2J3J4J5M1RWXY/LB1D1 |
Departure
| Time | 2026-05-09 02:42 |
|---|---|
| Airport | Naha International Airport (ROAH) |
Arrival
| Time | 2026-05-09 03:53 |
|---|---|
| Airport | Taiwan Taoyuan International Airport (RCTP) |
| Time | Latitude | Longitude | Altitude | Speed | Heading |
|---|---|---|---|---|---|
| 2026-05-09 01:59 | 26.20422 | 127.64926 | 33 ft | 0 kts | 29° |
| 2026-05-09 02:32 | 26.20419 | 127.64924 | 32 ft | 3 kts | 28° |
| 2026-05-09 02:32 | 26.20395 | 127.64911 | 31 ft | 4 kts | 25° |
| 2026-05-09 02:32 | 26.20371 | 127.64898 | 32 ft | 3 kts | 29° |
| 2026-05-09 02:33 | 26.20370 | 127.64902 | 32 ft | 4 kts | 76° |
| 2026-05-09 02:33 | 26.20358 | 127.64923 | 33 ft | 4 kts | 128° |
| 2026-05-09 02:33 | 26.20358 | 127.64946 | 32 ft | 0 kts | 267° |
| 2026-05-09 02:35 | 26.20357 | 127.64942 | 33 ft | 2 kts | 267° |
| 2026-05-09 02:36 | 26.20355 | 127.64891 | 33 ft | 16 kts | 267° |
| 2026-05-09 02:36 | 26.20314 | 127.64772 | 33 ft | 18 kts | 205° |
| 2026-05-09 02:36 | 26.20233 | 127.64763 | 33 ft | 18 kts | 178° |
| 2026-05-09 02:36 | 26.20065 | 127.64770 | 33 ft | 18 kts | 178° |
| 2026-05-09 02:37 | 26.19941 | 127.64776 | 33 ft | 18 kts | 177° |
| 2026-05-09 02:37 | 26.19816 | 127.64783 | 33 ft | 18 kts | 178° |
| 2026-05-09 02:37 | 26.19691 | 127.64788 | 33 ft | 18 kts | 178° |
| 2026-05-09 02:37 | 26.19566 | 127.64794 | 33 ft | 18 kts | 177° |
| 2026-05-09 02:38 | 26.19441 | 127.64800 | 33 ft | 18 kts | 177° |
| 2026-05-09 02:38 | 26.19316 | 127.64805 | 33 ft | 18 kts | 178° |
| 2026-05-09 02:38 | 26.19195 | 127.64811 | 33 ft | 18 kts | 177° |
| 2026-05-09 02:38 | 26.19068 | 127.64818 | 33 ft | 18 kts | 177° |
| 2026-05-09 02:39 | 26.18985 | 127.64822 | 33 ft | 18 kts | 178° |
| 2026-05-09 02:39 | 26.18818 | 127.64829 | 33 ft | 18 kts | 178° |
| 2026-05-09 02:39 | 26.18693 | 127.64835 | 33 ft | 18 kts | 177° |
| 2026-05-09 02:39 | 26.18611 | 127.64840 | 33 ft | 18 kts | 177° |
| 2026-05-09 02:40 | 26.18486 | 127.64844 | 33 ft | 18 kts | 178° |
| 2026-05-09 02:40 | 26.18321 | 127.64851 | 33 ft | 18 kts | 178° |
| 2026-05-09 02:40 | 26.18257 | 127.64808 | 33 ft | 11 kts | 245° |
| 2026-05-09 02:40 | 26.18243 | 127.64729 | 32 ft | 11 kts | 272° |
| 2026-05-09 02:41 | 26.18304 | 127.64650 | 31 ft | 21 kts | 342° |
| 2026-05-09 02:41 | 26.18434 | 127.64640 | 31 ft | 35 kts | 358° |
| 2026-05-09 02:41 | 26.18767 | 127.64625 | 34 ft | 72 kts | 356° |
| 2026-05-09 02:41 | 26.19862 | 127.64574 | 30 ft | 160 kts | 357° |
| 2026-05-09 02:42 | 26.20674 | 127.64554 | 92 ft | 188 kts | 359° |
| 2026-05-09 02:42 | 26.22006 | 127.64478 | 691 ft | 193 kts | 357° |
| 2026-05-09 02:42 | 26.23287 | 127.64384 | 1822 ft | 170 kts | 2° |
| 2026-05-09 02:42 | 26.24490 | 127.64340 | 2458 ft | 183 kts | 2° |
| 2026-05-09 02:43 | 26.25827 | 127.64142 | 2628 ft | 215 kts | 343° |
| 2026-05-09 02:43 | 26.27258 | 127.63339 | 2980 ft | 242 kts | 335° |
| 2026-05-09 02:43 | 26.28749 | 127.62358 | 3616 ft | 255 kts | 332° |
| 2026-05-09 02:43 | 26.30326 | 127.61371 | 4379 ft | 265 kts | 337° |
| 2026-05-09 02:44 | 26.31938 | 127.60422 | 5084 ft | 275 kts | 329° |
| 2026-05-09 02:44 | 26.33586 | 127.59292 | 5914 ft | 279 kts | 327° |
| 2026-05-09 02:44 | 26.35285 | 127.58152 | 6665 ft | 289 kts | 326° |
| 2026-05-09 02:44 | 26.37026 | 127.57032 | 7490 ft | 288 kts | 326° |
| 2026-05-09 02:45 | 26.38774 | 127.55919 | 8242 ft | 290 kts | 325° |
| 2026-05-09 02:45 | 26.40321 | 127.54584 | 8758 ft | 285 kts | 302° |
| 2026-05-09 02:45 | 26.41126 | 127.52632 | 9455 ft | 274 kts | 275° |
| 2026-05-09 02:45 | 26.41083 | 127.50559 | 10257 ft | 267 kts | 255° |
| 2026-05-09 02:46 | 26.40427 | 127.48589 | 10588 ft | 281 kts | 238° |
| 2026-05-09 02:46 | 26.39195 | 127.46827 | 10741 ft | 304 kts | 230° |
| 2026-05-09 02:46 | 26.37719 | 127.45015 | 10940 ft | 327 kts | 229° |
| 2026-05-09 02:46 | 26.36144 | 127.43068 | 11182 ft | 347 kts | 230° |
| 2026-05-09 02:47 | 26.34519 | 127.41021 | 11755 ft | 357 kts | 230° |
| 2026-05-09 02:47 | 26.32800 | 127.38983 | 12489 ft | 363 kts | 227° |
| 2026-05-09 02:47 | 26.30993 | 127.37016 | 13382 ft | 366 kts | 226° |
| 2026-05-09 02:47 | 26.29169 | 127.35078 | 14652 ft | 360 kts | 226° |
| 2026-05-09 02:48 | 26.27354 | 127.33135 | 15617 ft | 367 kts | 226° |
| 2026-05-09 02:48 | 26.25496 | 127.31121 | 16177 ft | 378 kts | 227° |
| 2026-05-09 02:48 | 26.23586 | 127.29039 | 16646 ft | 390 kts | 226° |
| 2026-05-09 02:48 | 26.21633 | 127.26914 | 17496 ft | 395 kts | 227° |
| 2026-05-09 02:49 | 26.19657 | 127.24763 | 18234 ft | 400 kts | 227° |
| 2026-05-09 02:49 | 26.17664 | 127.22584 | 18825 ft | 404 kts | 227° |
| 2026-05-09 02:49 | 26.15651 | 127.20385 | 19435 ft | 407 kts | 227° |
| 2026-05-09 02:49 | 26.13620 | 127.18172 | 20063 ft | 410 kts | 227° |
| 2026-05-09 02:50 | 26.11709 | 127.15832 | 20645 ft | 408 kts | 236° |
| 2026-05-09 02:50 | 26.10157 | 127.13180 | 21168 ft | 411 kts | 241° |
| 2026-05-09 02:50 | 26.08679 | 127.10443 | 21750 ft | 414 kts | 241° |
| 2026-05-09 02:50 | 26.07196 | 127.07691 | 22341 ft | 417 kts | 241° |
| 2026-05-09 02:51 | 26.05683 | 127.04923 | 22878 ft | 421 kts | 241° |
| 2026-05-09 02:51 | 26.04140 | 127.02143 | 23445 ft | 424 kts | 240° |
| 2026-05-09 02:51 | 26.02573 | 126.99353 | 23934 ft | 427 kts | 240° |
| 2026-05-09 02:51 | 26.00988 | 126.96551 | 24399 ft | 429 kts | 240° |
| 2026-05-09 02:52 | 25.99389 | 126.93732 | 24848 ft | 432 kts | 240° |
| 2026-05-09 02:52 | 25.97781 | 126.90900 | 25296 ft | 435 kts | 241° |
| 2026-05-09 02:52 | 25.96163 | 126.88054 | 25732 ft | 437 kts | 241° |
| 2026-05-09 02:52 | 25.94533 | 126.85187 | 26153 ft | 440 kts | 241° |
| 2026-05-09 02:53 | 25.92895 | 126.82306 | 26586 ft | 443 kts | 241° |
| 2026-05-09 02:53 | 25.91245 | 126.79405 | 26999 ft | 445 kts | 241° |
| 2026-05-09 02:53 | 25.89610 | 126.76531 | 27413 ft | 448 kts | 241° |
| 2026-05-09 02:53 | 25.87943 | 126.73605 | 27834 ft | 450 kts | 242° |
| 2026-05-09 02:54 | 25.86282 | 126.70655 | 28291 ft | 451 kts | 243° |
| 2026-05-09 02:54 | 25.84695 | 126.67643 | 28684 ft | 453 kts | 244° |
| 2026-05-09 02:54 | 25.83147 | 126.64589 | 29059 ft | 455 kts | 245° |
| 2026-05-09 02:54 | 25.81602 | 126.61505 | 29378 ft | 459 kts | 245° |
| 2026-05-09 02:55 | 25.80046 | 126.58411 | 29742 ft | 460 kts | 245° |
| 2026-05-09 02:55 | 25.78477 | 126.55318 | 30145 ft | 460 kts | 245° |
| 2026-05-09 02:55 | 25.76896 | 126.52220 | 30091 ft | 461 kts | 245° |
| 2026-05-09 02:56 | 25.73742 | 126.46084 | 30092 ft | 456 kts | 245° |
| 2026-05-09 02:56 | 25.70595 | 126.39978 | 30107 ft | 456 kts | 245° |
| 2026-05-09 02:57 | 25.67442 | 126.33865 | 30101 ft | 457 kts | 245° |
| 2026-05-09 02:57 | 25.64279 | 126.27740 | 30100 ft | 458 kts | 245° |
| 2026-05-09 02:58 | 25.61115 | 126.21624 | 30108 ft | 457 kts | 245° |
| 2026-05-09 02:58 | 25.57958 | 126.15527 | 30087 ft | 456 kts | 245° |
| 2026-05-09 02:59 | 25.54804 | 126.09444 | 30095 ft | 456 kts | 245° |
| 2026-05-09 02:59 | 25.51643 | 126.03353 | 30097 ft | 456 kts | 245° |
| 2026-05-09 03:00 | 25.48476 | 125.97257 | 30089 ft | 458 kts | 245° |
| 2026-05-09 03:00 | 25.45297 | 125.91152 | 30095 ft | 458 kts | 245° |
| 2026-05-09 03:01 | 25.42117 | 125.85052 | 30073 ft | 458 kts | 244° |
| 2026-05-09 03:01 | 25.38923 | 125.78930 | 30068 ft | 462 kts | 244° |
| 2026-05-09 03:02 | 25.35709 | 125.72776 | 30095 ft | 462 kts | 245° |
| 2026-05-09 03:02 | 25.32470 | 125.66649 | 30090 ft | 460 kts | 244° |
| 2026-05-09 03:03 | 25.29216 | 125.60575 | 30090 ft | 458 kts | 244° |
| 2026-05-09 03:03 | 25.25974 | 125.54521 | 30059 ft | 457 kts | 244° |
| 2026-05-09 03:04 | 25.22737 | 125.48470 | 30098 ft | 458 kts | 244° |
| 2026-05-09 03:04 | 25.19489 | 125.42404 | 30086 ft | 459 kts | 244° |
| 2026-05-09 03:05 | 25.16228 | 125.36321 | 30082 ft | 461 kts | 244° |
| 2026-05-09 03:05 | 25.12962 | 125.30239 | 30080 ft | 460 kts | 244° |
| 2026-05-09 03:06 | 25.09631 | 125.24206 | 30088 ft | 462 kts | 240° |
| 2026-05-09 03:06 | 25.05776 | 125.18554 | 30048 ft | 464 kts | 238° |
| 2026-05-09 03:07 | 25.01891 | 125.12882 | 30055 ft | 463 kts | 238° |
| 2026-05-09 03:07 | 24.97989 | 125.07226 | 30067 ft | 465 kts | 237° |
| 2026-05-09 03:08 | 24.93862 | 125.01710 | 30051 ft | 467 kts | 236° |
| 2026-05-09 03:08 | 24.89723 | 124.96181 | 30036 ft | 468 kts | 236° |
| 2026-05-09 03:09 | 24.85718 | 124.90572 | 30051 ft | 459 kts | 244° |
| 2026-05-09 03:09 | 24.84443 | 124.87408 | 30069 ft | 450 kts | 257° |
| 2026-05-09 03:09 | 24.83776 | 124.84054 | 30067 ft | 449 kts | 265° |
| 2026-05-09 03:09 | 24.83639 | 124.80629 | 30060 ft | 448 kts | 276° |
| 2026-05-09 03:10 | 24.84023 | 124.77230 | 30077 ft | 448 kts | 279° |
| 2026-05-09 03:10 | 24.84938 | 124.70415 | 30089 ft | 451 kts | 279° |
| 2026-05-09 03:11 | 24.85821 | 124.63567 | 30074 ft | 451 kts | 278° |
| 2026-05-09 03:11 | 24.86651 | 124.56746 | 30049 ft | 447 kts | 278° |
| 2026-05-09 03:12 | 24.87452 | 124.50001 | 30048 ft | 442 kts | 278° |
| 2026-05-09 03:12 | 24.88241 | 124.43319 | 30064 ft | 439 kts | 278° |
| 2026-05-09 03:13 | 24.89421 | 124.33315 | 30080 ft | 440 kts | 278° |
| 2026-05-09 03:13 | 24.90210 | 124.26592 | 30071 ft | 444 kts | 278° |
| 2026-05-09 03:14 | 24.91001 | 124.19827 | 30089 ft | 447 kts | 278° |
| 2026-05-09 03:14 | 24.91790 | 124.13046 | 30058 ft | 445 kts | 278° |
| 2026-05-09 03:15 | 24.92570 | 124.06320 | 30066 ft | 441 kts | 278° |
| 2026-05-09 03:15 | 24.93341 | 123.99650 | 30079 ft | 438 kts | 278° |
| 2026-05-09 03:16 | 24.94066 | 123.92972 | 30067 ft | 439 kts | 278° |
| 2026-05-09 03:16 | 24.94761 | 123.86335 | 30087 ft | 439 kts | 278° |
| 2026-05-09 03:17 | 24.95464 | 123.79619 | 30061 ft | 443 kts | 278° |
| 2026-05-09 03:17 | 24.96174 | 123.72863 | 30059 ft | 444 kts | 278° |
| 2026-05-09 03:18 | 24.96882 | 123.66115 | 30064 ft | 443 kts | 278° |
| 2026-05-09 03:18 | 24.97585 | 123.59371 | 30069 ft | 443 kts | 278° |
| 2026-05-09 03:19 | 24.98286 | 123.52622 | 30073 ft | 443 kts | 278° |
| 2026-05-09 03:19 | 24.98983 | 123.45870 | 30074 ft | 443 kts | 278° |
| 2026-05-09 03:20 | 24.99678 | 123.39121 | 30070 ft | 443 kts | 278° |
| 2026-05-09 03:20 | 25.00368 | 123.32378 | 30078 ft | 444 kts | 277° |
| 2026-05-09 03:21 | 25.01059 | 123.25609 | 30078 ft | 443 kts | 277° |
| 2026-05-09 03:21 | 25.01745 | 123.18856 | 30086 ft | 443 kts | 277° |
| 2026-05-09 03:22 | 25.02441 | 123.12118 | 30086 ft | 442 kts | 278° |
| 2026-05-09 03:22 | 25.03144 | 123.05384 | 30077 ft | 442 kts | 278° |
| 2026-05-09 03:23 | 25.03839 | 122.98657 | 30088 ft | 441 kts | 277° |
| 2026-05-09 03:23 | 25.04510 | 122.91927 | 30087 ft | 441 kts | 277° |
| 2026-05-09 03:24 | 25.04840 | 122.88578 | 29946 ft | 438 kts | 277° |
| 2026-05-09 03:24 | 25.05166 | 122.85255 | 29668 ft | 434 kts | 277° |
| 2026-05-09 03:24 | 25.05491 | 122.81950 | 29342 ft | 433 kts | 277° |
| 2026-05-09 03:24 | 25.05815 | 122.78654 | 28981 ft | 432 kts | 277° |
| 2026-05-09 03:25 | 25.06138 | 122.75365 | 28630 ft | 431 kts | 277° |
| 2026-05-09 03:25 | 25.06460 | 122.72081 | 28301 ft | 430 kts | 277° |
| 2026-05-09 03:25 | 25.06780 | 122.68808 | 27933 ft | 429 kts | 277° |
| 2026-05-09 03:25 | 25.07099 | 122.65542 | 27267 ft | 428 kts | 277° |
| 2026-05-09 03:26 | 25.07415 | 122.62294 | 26650 ft | 424 kts | 276° |
| 2026-05-09 03:26 | 25.07728 | 122.59067 | 26040 ft | 421 kts | 276° |
| 2026-05-09 03:26 | 25.08039 | 122.55862 | 25409 ft | 419 kts | 276° |
| 2026-05-09 03:26 | 25.08347 | 122.52674 | 24775 ft | 417 kts | 276° |
| 2026-05-09 03:27 | 25.08550 | 122.50568 | 24377 ft | 416 kts | 276° |
| 2026-05-09 03:27 | 25.08958 | 122.46330 | 23535 ft | 415 kts | 276° |
| 2026-05-09 03:27 | 25.09159 | 122.44237 | 23058 ft | 414 kts | 276° |
| 2026-05-09 03:27 | 25.09461 | 122.41088 | 22416 ft | 411 kts | 276° |
| 2026-05-09 03:28 | 25.09760 | 122.37965 | 21808 ft | 408 kts | 276° |
| 2026-05-09 03:28 | 25.10056 | 122.34866 | 21217 ft | 405 kts | 276° |
| 2026-05-09 03:28 | 25.10469 | 122.31810 | 20631 ft | 402 kts | 283° |
| 2026-05-09 03:28 | 25.11259 | 122.28870 | 20095 ft | 398 kts | 289° |
| 2026-05-09 03:29 | 25.12273 | 122.26064 | 19790 ft | 389 kts | 292° |
| 2026-05-09 03:29 | 25.13514 | 122.23441 | 19480 ft | 382 kts | 298° |
| 2026-05-09 03:29 | 25.14864 | 122.20932 | 19186 ft | 379 kts | 298° |
| 2026-05-09 03:29 | 25.16224 | 122.18428 | 18893 ft | 382 kts | 298° |
| 2026-05-09 03:30 | 25.17596 | 122.15902 | 18585 ft | 385 kts | 298° |
| 2026-05-09 03:30 | 25.18968 | 122.13366 | 18276 ft | 384 kts | 298° |
| 2026-05-09 03:30 | 25.20332 | 122.10836 | 17949 ft | 382 kts | 298° |
| 2026-05-09 03:30 | 25.21686 | 122.08315 | 17633 ft | 381 kts | 298° |
| 2026-05-09 03:31 | 25.23030 | 122.05807 | 17338 ft | 378 kts | 298° |
| 2026-05-09 03:31 | 25.24363 | 122.03316 | 17028 ft | 376 kts | 298° |
| 2026-05-09 03:31 | 25.25687 | 122.00839 | 16742 ft | 374 kts | 298° |
| 2026-05-09 03:31 | 25.27004 | 121.98371 | 16452 ft | 372 kts | 298° |
| 2026-05-09 03:32 | 25.28320 | 121.95904 | 16153 ft | 371 kts | 298° |
| 2026-05-09 03:32 | 25.29630 | 121.93449 | 15877 ft | 371 kts | 298° |
| 2026-05-09 03:32 | 25.30937 | 121.90995 | 15591 ft | 371 kts | 298° |
| 2026-05-09 03:32 | 25.32245 | 121.88540 | 15308 ft | 371 kts | 298° |
| 2026-05-09 03:33 | 25.33552 | 121.86085 | 15011 ft | 371 kts | 298° |
| 2026-05-09 03:33 | 25.34862 | 121.83623 | 14728 ft | 371 kts | 298° |
| 2026-05-09 03:33 | 25.36173 | 121.81160 | 14434 ft | 372 kts | 298° |
| 2026-05-09 03:33 | 25.37483 | 121.78695 | 14146 ft | 372 kts | 298° |
| 2026-05-09 03:34 | 25.38793 | 121.76231 | 13833 ft | 371 kts | 298° |
| 2026-05-09 03:34 | 25.40097 | 121.73776 | 13505 ft | 369 kts | 298° |
| 2026-05-09 03:34 | 25.41393 | 121.71333 | 13212 ft | 367 kts | 298° |
| 2026-05-09 03:34 | 25.42680 | 121.68908 | 12919 ft | 364 kts | 298° |
| 2026-05-09 03:35 | 25.43958 | 121.66499 | 12633 ft | 362 kts | 298° |
| 2026-05-09 03:35 | 25.45209 | 121.64140 | 12357 ft | 359 kts | 298° |
| 2026-05-09 03:35 | 25.46417 | 121.61720 | 12055 ft | 347 kts | 290° |
| 2026-05-09 03:35 | 25.46916 | 121.59239 | 11717 ft | 322 kts | 270° |
| 2026-05-09 03:36 | 25.46658 | 121.56895 | 11454 ft | 295 kts | 257° |
| 2026-05-09 03:36 | 25.46076 | 121.54813 | 11222 ft | 273 kts | 250° |
| 2026-05-09 03:36 | 25.45198 | 121.53003 | 11018 ft | 269 kts | 234° |
| 2026-05-09 03:36 | 25.43969 | 121.51430 | 10844 ft | 270 kts | 232° |
| 2026-05-09 03:37 | 25.42730 | 121.49873 | 10621 ft | 267 kts | 232° |
| 2026-05-09 03:37 | 25.41519 | 121.48334 | 10406 ft | 263 kts | 232° |
| 2026-05-09 03:37 | 25.40330 | 121.46818 | 10194 ft | 259 kts | 232° |
| 2026-05-09 03:37 | 25.39158 | 121.45326 | 9996 ft | 255 kts | 233° |
| 2026-05-09 03:38 | 25.38001 | 121.43849 | 9767 ft | 253 kts | 233° |
| 2026-05-09 03:38 | 25.36853 | 121.42382 | 9565 ft | 251 kts | 232° |
| 2026-05-09 03:38 | 25.35713 | 121.40924 | 9355 ft | 251 kts | 232° |
| 2026-05-09 03:38 | 25.34565 | 121.39459 | 9181 ft | 253 kts | 232° |
| 2026-05-09 03:39 | 25.33398 | 121.37968 | 8985 ft | 258 kts | 231° |
| 2026-05-09 03:39 | 25.32216 | 121.36461 | 8769 ft | 259 kts | 232° |
| 2026-05-09 03:39 | 25.31048 | 121.34972 | 8557 ft | 254 kts | 232° |
| 2026-05-09 03:39 | 25.29896 | 121.33502 | 8360 ft | 252 kts | 231° |
| 2026-05-09 03:40 | 25.28749 | 121.32041 | 8161 ft | 253 kts | 231° |
| 2026-05-09 03:40 | 25.27611 | 121.30588 | 7944 ft | 253 kts | 230° |
| 2026-05-09 03:40 | 25.26444 | 121.29101 | 7752 ft | 253 kts | 230° |
| 2026-05-09 03:40 | 25.25308 | 121.27655 | 7571 ft | 252 kts | 230° |
| 2026-05-09 03:41 | 25.24144 | 121.26172 | 7358 ft | 253 kts | 230° |
| 2026-05-09 03:41 | 25.22994 | 121.24708 | 7171 ft | 251 kts | 230° |
| 2026-05-09 03:41 | 25.21876 | 121.23286 | 6988 ft | 244 kts | 230° |
| 2026-05-09 03:41 | 25.20790 | 121.21908 | 6752 ft | 234 kts | 230° |
| 2026-05-09 03:42 | 25.19738 | 121.20568 | 6595 ft | 229 kts | 230° |
| 2026-05-09 03:42 | 25.18711 | 121.19260 | 6387 ft | 222 kts | 230° |
| 2026-05-09 03:42 | 25.17720 | 121.17998 | 6212 ft | 214 kts | 230° |
| 2026-05-09 03:42 | 25.16761 | 121.16778 | 6026 ft | 208 kts | 229° |
| 2026-05-09 03:43 | 25.15817 | 121.15578 | 5871 ft | 209 kts | 229° |
| 2026-05-09 03:43 | 25.14838 | 121.14333 | 5753 ft | 218 kts | 229° |
| 2026-05-09 03:43 | 25.13836 | 121.13063 | 5551 ft | 221 kts | 229° |
| 2026-05-09 03:43 | 25.12831 | 121.11785 | 5404 ft | 220 kts | 227° |
| 2026-05-09 03:44 | 25.11834 | 121.10521 | 5264 ft | 216 kts | 227° |
| 2026-05-09 03:44 | 25.10852 | 121.09275 | 5095 ft | 215 kts | 227° |
| 2026-05-09 03:44 | 25.09876 | 121.08032 | 4954 ft | 215 kts | 226° |
| 2026-05-09 03:44 | 25.08879 | 121.06770 | 4790 ft | 221 kts | 228° |
| 2026-05-09 03:45 | 25.07875 | 121.05493 | 4588 ft | 220 kts | 228° |
| 2026-05-09 03:45 | 25.06875 | 121.04223 | 4413 ft | 218 kts | 228° |
| 2026-05-09 03:45 | 25.05878 | 121.02956 | 4258 ft | 220 kts | 227° |
| 2026-05-09 03:45 | 25.04872 | 121.01680 | 4121 ft | 219 kts | 227° |
| 2026-05-09 03:46 | 25.03739 | 121.00601 | 3899 ft | 216 kts | 201° |
| 2026-05-09 03:46 | 25.02294 | 121.00418 | 3775 ft | 210 kts | 166° |
| 2026-05-09 03:46 | 25.00994 | 121.01084 | 3604 ft | 205 kts | 140° |
| 2026-05-09 03:46 | 24.99963 | 121.02099 | 3445 ft | 195 kts | 131° |
| 2026-05-09 03:47 | 24.98981 | 121.03153 | 3298 ft | 200 kts | 130° |
| 2026-05-09 03:47 | 24.97991 | 121.04214 | 3132 ft | 196 kts | 130° |
| 2026-05-09 03:47 | 24.97019 | 121.05248 | 2940 ft | 192 kts | 131° |
| 2026-05-09 03:47 | 24.96096 | 121.06267 | 2790 ft | 184 kts | 122° |
| 2026-05-09 03:48 | 24.95775 | 121.07555 | 2676 ft | 178 kts | 80° |
| 2026-05-09 03:48 | 24.96222 | 121.08836 | 2620 ft | 182 kts | 65° |
| 2026-05-09 03:48 | 24.96817 | 121.10064 | 2582 ft | 179 kts | 61° |
| 2026-05-09 03:48 | 24.97496 | 121.11194 | 2517 ft | 176 kts | 59° |
| 2026-05-09 03:49 | 24.98174 | 121.12251 | 2487 ft | 163 kts | 57° |
| 2026-05-09 03:49 | 24.98861 | 121.13186 | 2275 ft | 150 kts | 54° |
| 2026-05-09 03:49 | 24.99498 | 121.14005 | 2095 ft | 132 kts | 53° |
| 2026-05-09 03:49 | 25.00088 | 121.14757 | 1920 ft | 131 kts | 53° |
| 2026-05-09 03:50 | 25.00684 | 121.15514 | 1742 ft | 131 kts | 53° |
| 2026-05-09 03:50 | 25.01290 | 121.16282 | 1573 ft | 136 kts | 52° |
| 2026-05-09 03:50 | 25.01918 | 121.17078 | 1383 ft | 139 kts | 51° |
| 2026-05-09 03:50 | 25.02541 | 121.17865 | 1208 ft | 135 kts | 50° |
| 2026-05-09 03:51 | 25.03149 | 121.18633 | 1047 ft | 127 kts | 50° |
| 2026-05-09 03:51 | 25.03710 | 121.19347 | 832 ft | 122 kts | 46° |
| 2026-05-09 03:51 | 25.04302 | 121.20090 | 681 ft | 131 kts | 47° |
| 2026-05-09 03:51 | 25.04899 | 121.20846 | 517 ft | 133 kts | 48° |
| 2026-05-09 03:52 | 25.05512 | 121.21629 | 320 ft | 132 kts | 48° |
| 2026-05-09 03:52 | 25.06109 | 121.22374 | 173 ft | 130 kts | 47° |
| 2026-05-09 03:52 | 25.06683 | 121.23109 | 101 ft | 118 kts | 50° |
| 2026-05-09 03:52 | 25.07152 | 121.23708 | 99 ft | 86 kts | 49° |
| 2026-05-09 03:53 | 25.07444 | 121.24078 | 98 ft | 35 kts | 44° |
| 2026-05-09 03:53 | 25.07611 | 121.24194 | 101 ft | 19 kts | 22° |
| 2026-05-09 03:53 | 25.07735 | 121.24220 | 104 ft | 15 kts | 336° |
| 2026-05-09 03:53 | 25.07741 | 121.24139 | 108 ft | 12 kts | 236° |
| 2026-05-09 03:54 | 25.07687 | 121.24068 | 106 ft | 12 kts | 229° |
| 2026-05-09 03:54 | 25.07632 | 121.23998 | 106 ft | 12 kts | 229° |
| 2026-05-09 03:54 | 25.07577 | 121.23928 | 105 ft | 12 kts | 229° |
| 2026-05-09 03:54 | 25.07522 | 121.23858 | 105 ft | 12 kts | 229° |
| 2026-05-09 03:55 | 25.07523 | 121.23774 | 105 ft | 12 kts | 304° |
| 2026-05-09 03:55 | 25.07585 | 121.23710 | 108 ft | 12 kts | 318° |
| 2026-05-09 03:55 | 25.07608 | 121.23647 | 105 ft | 4 kts | 288° |
| 2026-05-09 03:55 | 25.07621 | 121.23619 | 106 ft | 4 kts | 302° |
| 2026-05-09 03:56 | 25.07641 | 121.23596 | 107 ft | 4 kts | 316° |
| 2026-05-09 03:56 | 25.07663 | 121.23575 | 108 ft | 4 kts | 319° |
| 2026-05-09 03:56 | 25.07669 | 121.23570 | 108 ft | 1 kts | 320° |
| 2026-05-09 03:56 | 25.07677 | 121.23562 | 106 ft | 2 kts | 319° |
| 2026-05-09 03:57 | 25.07685 | 121.23554 | 106 ft | 2 kts | 319° |
| 2026-05-09 03:57 | 25.07688 | 121.23551 | 108 ft | 0 kts | 319° |